Time;durP1;ratioP1;P1;durP2;ratioP2;P2;SDS_P1;SDS_P2;PMS_P1;PMS_P2;Temp;Humidity;BMP_temperature;BMP_pressure;BME280_temperature;BME280_humidity;BME280_pressure;Samples;Min_cycle;Max_cycle;Signal;HPM_P1;HPM_P2
2023/08/18 00:03:10;;;;;;;0.10;0.10;;;;;;;-145.06;100.00;39759.81;10451852;28;20021;-64
2023/08/18 00:08:11;;;;;;;0.10;0.10;;;;;;;-145.06;100.00;39745.69;10452033;28;20043;-65
2023/08/18 00:13:11;;;;;;;0.00;0.00;;;;;;;-145.06;100.00;39707.34;10444438;28;20089;-65
2023/08/18 00:18:11;;;;;;;0.10;0.10;;;;;;;-145.06;100.00;39699.28;10435197;28;20026;-65
2023/08/18 00:23:12;;;;;;;0.10;0.10;;;;;;;-145.06;100.00;39715.44;10444094;28;20024;-65
2023/08/18 00:28:13;;;;;;;0.10;0.10;;;;;;;-145.06;100.00;39711.38;10422038;28;20025;-66
2023/08/18 00:33:13;;;;;;;0.00;0.00;;;;;;;-145.06;100.00;39673.06;10450623;28;20032;-66
2023/08/18 00:38:14;;;;;;;0.08;0.08;;;;;;;-145.06;100.00;39741.66;10450281;28;20017;-65
2023/08/18 00:43:14;;;;;;;0.10;0.10;;;;;;;-145.06;100.00;39695.25;10442258;28;20021;-65
2023/08/18 00:48:15;;;;;;;0.10;0.10;;;;;;;-145.06;100.00;39707.34;10448291;28;20094;-65
2023/08/18 00:53:16;;;;;;;0.10;0.10;;;;;;;-145.06;100.00;39709.38;10441598;28;20059;-65
2023/08/18 00:58:17;;;;;;;0.10;0.10;;;;;;;-145.06;100.00;39717.44;10441912;28;20458;-65
2023/08/18 01:03:18;;;;;;;0.10;0.10;;;;;;;-145.06;100.00;39703.31;10432000;28;20045;-65
2023/08/18 01:08:19;;;;;;;0.10;0.10;;;;;;;-145.06;100.00;39705.34;10424218;28;20060;-65
2023/08/18 01:13:33;;;;;;;0.10;0.10;;;;;;;-145.06;100.00;39695.25;10432753;28;20099;-65
2023/08/18 01:18:34;;;;;;;0.10;0.10;;;;;;;-145.06;100.00;39687.19;10441499;28;20021;-65
2023/08/18 01:23:41;;;;;;;0.10;0.10;;;;;;;-145.06;100.00;39707.34;10449115;28;20089;-65
2023/08/18 01:28:43;;;;;;;0.10;0.10;;;;;;;-145.06;100.00;39697.25;10439309;28;20021;-65
2023/08/18 01:33:49;;;;;;;0.10;0.10;;;;;;;-145.06;100.00;39707.34;10440302;28;20056;-65
2023/08/18 01:38:51;;;;;;;0.10;0.10;;;;;;;-145.06;100.00;39677.09;10440462;28;20127;-65
2023/08/18 01:43:52;;;;;;;0.10;0.10;;;;;;;-145.06;100.00;39713.41;10448115;28;20059;-65
2023/08/18 01:48:52;;;;;;;0.10;0.10;;;;;;;-145.06;100.00;39763.84;10444154;28;20056;-65
2023/08/18 01:53:52;;;;;;;0.10;0.10;;;;;;;-145.06;100.00;39701.31;10441520;28;20048;-65
2023/08/18 01:58:53;;;;;;;0.20;0.20;;;;;;;-145.06;100.00;39713.41;10439932;28;20123;-64
2023/08/18 02:03:53;;;;;;;0.10;0.10;;;;;;;-145.06;100.00;39689.19;10442984;28;20466;-65
2023/08/18 02:08:53;;;;;;;0.00;0.00;;;;;;;-145.06;100.00;39717.44;10446458;28;20028;-65
2023/08/18 02:13:53;;;;;;;0.10;0.10;;;;;;;-145.06;100.00;39693.22;10446050;28;20016;-65
2023/08/18 02:18:54;;;;;;;0.10;0.10;;;;;;;-145.06;100.00;39689.19;10445606;28;20358;-65
2023/08/18 02:23:54;;;;;;;0.10;0.10;;;;;;;-145.06;100.00;39687.19;10423991;28;20497;-65
2023/08/18 02:28:54;;;;;;;0.00;0.00;;;;;;;-145.06;100.00;39705.34;10444010;28;20023;-65
2023/08/18 02:33:55;;;;;;;0.00;0.00;;;;;;;-145.06;100.00;39725.50;10441374;28;20450;-65
2023/08/18 02:38:55;;;;;;;0.00;0.00;;;;;;;-145.06;100.00;39701.31;10440180;28;20031;-66
2023/08/18 02:43:55;;;;;;;0.00;0.00;;;;;;;-145.06;100.00;39727.53;10440488;28;20021;-66
2023/08/18 02:48:55;;;;;;;0.10;0.10;;;;;;;-145.06;100.00;39733.59;10445060;28;20017;-66
2023/08/18 02:53:56;;;;;;;0.00;0.00;;;;;;;-145.06;100.00;39683.13;10445319;28;20025;-65
2023/08/18 02:58:56;;;;;;;0.10;0.10;;;;;;;-145.06;100.00;39679.09;10443520;28;20044;-66
2023/08/18 03:03:57;;;;;;;0.00;0.00;;;;;;;-145.06;100.00;39739.63;10439332;28;20094;-66
2023/08/18 03:08:57;;;;;;;0.10;0.10;;;;;;;-145.06;100.00;39757.81;10438985;28;20024;-65
2023/08/18 03:13:57;;;;;;;0.00;0.00;;;;;;;-145.06;100.00;39786.06;10444905;28;20036;-66
2023/08/18 03:18:57;;;;;;;0.00;0.00;;;;;;;-145.06;100.00;39761.84;10443840;28;20086;-66
2023/08/18 03:23:58;;;;;;;0.10;0.10;;;;;;;-145.06;100.00;39790.09;10433702;28;20021;-66
2023/08/18 03:28:58;;;;;;;0.10;0.10;;;;;;;-145.06;100.00;39812.28;10444199;28;20029;-65
2023/08/18 03:33:58;;;;;;;0.10;0.10;;;;;;;-145.06;100.00;39796.16;10453235;28;20020;-66
2023/08/18 03:38:59;;;;;;;0.10;0.10;;;;;;;-145.06;100.00;39798.16;10452348;28;20017;-66
2023/08/18 03:43:59;;;;;;;0.10;0.10;;;;;;;-145.06;100.00;39828.44;10452529;28;20033;-66
2023/08/18 03:48:59;;;;;;;0.10;0.10;;;;;;;-145.06;100.00;39814.31;10445670;28;20017;-66
2023/08/18 03:54:00;;;;;;;0.10;0.10;;;;;;;-145.06;100.00;39834.47;10434724;28;20123;-66
2023/08/18 03:59:00;;;;;;;0.10;0.10;;;;;;;-145.06;100.00;39844.56;10435456;28;20048;-66
2023/08/18 04:04:01;;;;;;;0.10;0.10;;;;;;;-145.06;100.00;39846.59;10425905;28;20382;-66
2023/08/18 04:09:06;;;;;;;0.10;0.10;;;;;;;-145.06;100.00;39891.00;10441642;28;20013;-65
2023/08/18 04:14:06;;;;;;;0.10;0.10;;;;;;;-145.06;100.00;39870.81;10437687;28;20087;-66
2023/08/18 04:19:07;;;;;;;0.10;0.10;;;;;;;-145.06;100.00;39836.50;10435892;28;20135;-66
2023/08/18 04:24:07;;;;;;;0.10;0.10;;;;;;;-145.06;100.00;39832.47;10427281;28;20118;-65
2023/08/18 04:29:07;;;;;;;0.10;0.10;;;;;;;-145.06;100.00;39808.25;10394380;28;20268;-66
2023/08/18 04:34:07;;;;;;;0.10;0.10;;;;;;;-145.06;100.00;39777.97;10420033;28;20029;-66
2023/08/18 04:39:10;;;;;;;0.00;0.00;;;;;;;-145.06;100.00;39729.56;10434610;28;20025;-66
2023/08/18 04:44:10;;;;;;;0.00;0.00;;;;;;;-145.06;100.00;39800.19;10440608;28;20027;-66
2023/08/18 04:49:11;;;;;;;0.10;0.10;;;;;;;-145.06;100.00;39709.38;10442446;28;20017;-66
2023/08/18 04:54:11;;;;;;;0.10;0.10;;;;;;;-145.06;100.00;39733.59;10451508;28;20020;-66
2023/08/18 04:59:12;;;;;;;0.10;0.10;;;;;;;-145.06;100.00;39711.38;10440276;28;20021;-66
2023/08/18 05:04:12;;;;;;;0.00;0.00;;;;;;;-145.06;100.00;39705.34;10435684;28;20128;-66
2023/08/18 05:09:13;;;;;;;0.10;0.10;;;;;;;-145.06;100.00;39658.94;10430412;28;20474;-66
2023/08/18 05:14:13;;;;;;;0.10;0.10;;;;;;;-145.06;100.00;39572.16;10444571;28;20017;-66
2023/08/18 05:19:14;;;;;;;0.10;0.10;;;;;;;-145.06;100.00;39660.94;10416983;28;20052;-66
2023/08/18 05:24:14;;;;;;;0.00;0.00;;;;;;;-145.06;100.00;39604.44;10425883;28;20017;-66
2023/08/18 05:29:16;;;;;;;0.10;0.10;;;;;;;-145.06;100.00;39632.69;10428516;28;20521;-65
2023/08/18 05:34:16;;;;;;;0.10;0.10;;;;;;;-145.06;100.00;39616.56;10428457;28;20365;-66
2023/08/18 05:39:17;;;;;;;0.10;0.10;;;;;;;-145.06;100.00;39610.50;10434446;28;20021;-65
2023/08/18 05:44:17;;;;;;;0.10;0.10;;;;;;;-145.06;100.00;39560.06;10427303;28;20021;-65
2023/08/18 05:49:17;;;;;;;0.10;0.10;;;;;;;-145.06;100.00;39608.47;10447133;28;20021;-65
2023/08/18 05:54:18;;;;;;;0.03;0.03;;;;;;;-145.06;100.00;39543.91;10439959;28;20481;-65
2023/08/18 05:59:18;;;;;;;0.10;0.10;;;;;;;-145.06;100.00;39501.53;10434277;28;20470;-65
2023/08/18 06:04:18;;;;;;;0.10;0.10;;;;;;;-145.06;100.00;39513.63;10432207;28;20033;-65
2023/08/18 06:09:19;;;;;;;0.10;0.10;;;;;;;-145.06;100.00;39497.50;10430991;28;20051;-65
2023/08/18 06:14:19;;;;;;;0.10;0.10;;;;;;;-145.06;100.00;39543.91;10424199;28;20036;-66
2023/08/18 06:19:19;;;;;;;0.00;0.00;;;;;;;-145.06;100.00;39497.50;10436659;28;20287;-65
2023/08/18 06:24:20;;;;;;;0.10;0.10;;;;;;;-145.06;100.00;39487.41;10426333;28;20097;-65
2023/08/18 06:29:20;;;;;;;0.10;0.10;;;;;;;-145.06;100.00;39515.66;10435142;28;20032;-65
2023/08/18 06:34:20;;;;;;;0.10;0.10;;;;;;;-145.06;100.00;39459.16;10437662;28;20027;-64
2023/08/18 06:39:20;;;;;;;0.10;0.10;;;;;;;-145.06;100.00;39461.19;10439270;28;20361;-64
2023/08/18 06:44:21;;;;;;;0.10;0.10;;;;;;;-145.06;100.00;39434.94;10436502;28;20017;-64
2023/08/18 06:49:21;;;;;;;0.10;0.10;;;;;;;-145.06;100.00;39416.78;10413541;28;20813;-65
2023/08/18 06:54:22;;;;;;;0.00;0.00;;;;;;;-145.06;100.00;39426.88;10441453;28;20312;-64
2023/08/18 06:59:22;;;;;;;0.00;0.00;;;;;;;-145.06;100.00;39406.69;10434518;28;20131;-64
2023/08/18 07:04:22;;;;;;;0.10;0.10;;;;;;;-145.06;100.00;39386.53;10438161;28;20036;-64
2023/08/18 07:09:23;;;;;;;0.10;0.10;;;;;;;-145.06;100.00;39370.38;10440183;28;20033;-64
2023/08/18 07:14:23;;;;;;;0.00;0.00;;;;;;;-145.06;100.00;39378.44;10441299;28;20277;-64
2023/08/18 07:19:23;;;;;;;0.00;0.00;;;;;;;-145.06;100.00;39362.31;10441591;28;20029;-66
2023/08/18 07:24:25;;;;;;;0.00;0.00;;;;;;;-145.06;100.00;39328.00;10421810;28;20056;-64
2023/08/18 07:29:25;;;;;;;0.10;0.10;;;;;;;-145.06;100.00;39313.88;10421432;28;20025;-65
2023/08/18 07:34:26;;;;;;;0.10;0.10;;;;;;;-145.06;100.00;39289.66;10443173;28;20025;-65
2023/08/18 07:39:26;;;;;;;0.00;0.00;;;;;;;-145.06;100.00;39307.84;10412866;28;20079;-65
2023/08/18 07:44:26;;;;;;;0.10;0.10;;;;;;;-145.06;100.00;39279.59;10408489;28;20038;-64
2023/08/18 07:49:27;;;;;;;0.10;0.10;;;;;;;-145.06;100.00;39321.97;10421474;28;20362;-64
2023/08/18 07:54:28;;;;;;;0.10;0.10;;;;;;;-145.06;100.00;39273.53;10421454;28;20020;-64
2023/08/18 07:59:28;;;;;;;0.00;0.00;;;;;;;-145.06;100.00;39263.44;10418794;28;20025;-64
2023/08/18 08:04:28;;;;;;;0.10;0.10;;;;;;;-145.06;100.00;39319.94;10433611;28;20029;-64
2023/08/18 08:09:28;;;;;;;0.10;0.10;;;;;;;-145.06;100.00;39259.41;10441448;28;20028;-64
2023/08/18 08:14:29;;;;;;;0.10;0.10;;;;;;;-145.06;100.00;39231.16;10434536;28;20043;-64
2023/08/18 08:19:29;;;;;;;0.10;0.10;;;;;;;-145.06;100.00;39245.28;10427321;28;20032;-64
2023/08/18 08:24:29;;;;;;;0.00;0.00;;;;;;;-145.06;100.00;39194.84;10444337;28;20028;-64
2023/08/18 08:29:29;;;;;;;0.00;0.00;;;;;;;-145.06;100.00;39245.28;10425241;28;20078;-64
2023/08/18 08:34:30;;;;;;;0.10;0.10;;;;;;;-145.06;100.00;39192.81;10438522;28;20033;-64
2023/08/18 08:39:30;;;;;;;0.10;0.10;;;;;;;-145.06;100.00;39190.81;10438647;28;20025;-64
2023/08/18 08:44:30;;;;;;;0.10;0.10;;;;;;;-145.06;100.00;39144.41;10448381;28;20469;-64
2023/08/18 08:49:32;;;;;;;0.10;0.10;;;;;;;-145.06;100.00;39130.28;10433345;28;20021;-64
2023/08/18 08:54:37;;;;;;;0.05;0.05;;;;;;;-145.06;100.00;39124.22;10427196;28;20043;-64
2023/08/18 08:59:37;;;;;;;0.00;0.00;;;;;;;-145.06;100.00;39108.09;10434764;28;20025;-64
2023/08/18 09:04:38;;;;;;;0.10;0.10;;;;;;;-145.06;100.00;39077.81;10438509;28;20029;-64
2023/08/18 09:09:39;;;;;;;0.00;0.00;;;;;;;-145.06;100.00;39075.81;10448218;28;20017;-64
2023/08/18 09:14:41;;;;;;;0.00;0.00;;;;;;;-145.06;100.00;39015.28;10439886;28;20101;-64
2023/08/18 09:19:41;;;;;;;0.00;0.00;;;;;;;-145.06;100.00;39061.69;10425884;28;20029;-64
2023/08/18 09:24:46;;;;;;;0.10;0.10;;;;;;;-145.06;100.00;38972.91;10436653;28;20029;-64
2023/08/18 09:29:47;;;;;;;0.00;0.00;;;;;;;-145.06;100.00;38958.78;10433456;28;20490;-63
2023/08/18 09:34:48;;;;;;;0.00;0.00;;;;;;;-145.06;100.00;38999.13;10440478;28;20028;-63
2023/08/18 09:39:52;;;;;;;0.00;0.00;;;;;;;-145.06;100.00;38954.75;10433490;28;20393;-63
2023/08/18 09:44:53;;;;;;;0.00;0.00;;;;;;;-145.06;100.00;38914.41;10440315;28;20075;-63
2023/08/18 09:49:54;;;;;;;0.00;0.00;;;;;;;-145.06;100.00;38874.06;10438777;28;20028;-63
2023/08/18 09:55:12;;;;;;;0.00;0.00;;;;;;;-145.06;100.00;38863.97;10443937;28;20098;-63
2023/08/18 10:00:14;;;;;;;0.00;0.00;;;;;;;-145.06;100.00;38777.22;10443785;28;20035;-64
2023/08/18 10:05:14;;;;;;;0.00;0.00;;;;;;;-145.06;100.00;38718.72;10426427;28;20021;-64
2023/08/18 10:10:16;;;;;;;0.10;0.10;;;;;;;-145.06;100.00;38660.22;10439874;28;20028;-63
2023/08/18 10:15:17;;;;;;;0.00;0.00;;;;;;;-145.06;100.00;38730.81;10445151;28;20016;-64
2023/08/18 10:20:18;;;;;;;0.00;0.00;;;;;;;-145.06;100.00;38783.28;10437294;28;20382;-62
2023/08/18 10:25:28;;;;;;;0.00;0.00;;;;;;;-145.06;100.00;38607.75;10441631;28;20017;-64
2023/08/18 10:30:29;;;;;;;0.00;0.00;;;;;;;-145.06;100.00;38470.59;10442973;28;20112;-64
2023/08/18 10:35:29;;;;;;;0.00;0.00;;;;;;;-145.06;100.00;38278.94;10438368;28;20150;-64
2023/08/18 10:40:35;;;;;;;0.00;0.00;;;;;;;-145.06;100.00;38220.44;10441700;28;20044;-65
2023/08/18 10:45:35;;;;;;;0.00;0.00;;;;;;;-145.06;100.00;38170.03;10441632;28;20037;-65
2023/08/18 10:50:39;;;;;;;0.00;0.00;;;;;;;-145.06;99.06;38216.41;10435462;28;20044;-64
2023/08/18 10:55:42;;;;;;;0.00;0.00;;;;;;;-145.06;100.00;38206.31;10434114;28;20055;-65
2023/08/18 11:00:44;;;;;;;0.03;0.03;;;;;;;-145.06;99.42;38220.44;10422607;28;20028;-66
2023/08/18 11:05:46;;;;;;;0.00;0.00;;;;;;;-145.06;99.31;38141.78;10437965;28;20020;-64
2023/08/18 11:10:46;;;;;;;0.00;0.00;;;;;;;-145.06;99.36;38206.31;10444998;28;20096;-64
2023/08/18 11:15:49;;;;;;;0.10;0.10;;;;;;;-145.06;100.00;38230.53;10416983;28;20099;-65
2023/08/18 11:20:51;;;;;;;0.00;0.00;;;;;;;-145.06;100.00;38202.28;10436848;28;20017;-66
2023/08/18 11:25:51;;;;;;;0.00;0.00;;;;;;;-145.06;100.00;38163.97;10430311;28;20183;-66
2023/08/18 11:30:56;;;;;;;0.00;0.00;;;;;;;-145.06;100.00;38161.94;10413301;28;20120;-66
2023/08/18 11:35:56;;;;;;;0.00;0.00;;;;;;;-145.06;97.57;38220.44;10411799;28;20044;-65
2023/08/18 11:40:58;;;;;;;0.10;0.10;;;;;;;-145.06;98.97;38049.00;10416635;28;20035;-65
2023/08/18 11:45:58;;;;;;;0.00;0.00;;;;;;;-145.06;98.53;38034.88;10440430;28;20126;-65
2023/08/18 11:50:59;;;;;;;0.00;0.00;;;;;;;-145.06;100.00;38157.91;10429847;28;20021;-65
2023/08/18 11:56:00;;;;;;;0.10;0.10;;;;;;;-145.06;100.00;38220.44;10429229;28;20428;-65
2023/08/18 12:01:04;;;;;;;0.10;0.10;;;;;;;-145.06;100.00;38240.63;10438651;28;20027;-64
2023/08/18 12:06:05;;;;;;;0.00;0.00;;;;;;;-145.06;100.00;38194.22;10438913;28;20021;-63
2023/08/18 12:11:05;;;;;;;0.00;0.00;;;;;;;-145.06;100.00;38127.66;10437607;28;20014;-64
2023/08/18 12:16:05;;;;;;;0.00;0.00;;;;;;;-145.06;100.00;38260.78;10441081;28;20029;-64
2023/08/18 12:21:06;;;;;;;0.00;0.00;;;;;;;-145.06;100.00;38228.53;10436023;28;20025;-64
2023/08/18 12:26:07;;;;;;;0.00;0.00;;;;;;;-145.06;100.00;38121.63;10440486;28;20013;-65
2023/08/18 12:31:07;;;;;;;0.00;0.00;;;;;;;-145.06;100.00;38093.38;10450835;28;20040;-64
2023/08/18 12:36:08;;;;;;;0.00;0.00;;;;;;;-145.06;100.00;38075.22;10448861;28;20021;-65
2023/08/18 12:41:08;;;;;;;0.00;0.00;;;;;;;-145.06;98.99;38079.25;10440831;28;20119;-64
2023/08/18 12:46:09;;;;;;;0.00;0.00;;;;;;;-145.06;100.00;37974.38;10445375;28;20055;-64
2023/08/18 12:51:09;;;;;;;0.00;0.00;;;;;;;-145.06;100.00;37917.88;10425360;28;20017;-64
2023/08/18 12:56:10;;;;;;;0.00;0.00;;;;;;;-145.06;100.00;37851.34;10411666;28;20105;-64
2023/08/18 13:01:12;;;;;;;0.00;0.00;;;;;;;-145.06;100.00;37853.34;10406229;28;20027;-64
2023/08/18 13:06:12;;;;;;;0.10;0.10;;;;;;;-145.06;100.00;37889.66;10441881;28;20033;-65
2023/08/18 13:11:13;;;;;;;0.00;0.00;;;;;;;-145.06;99.81;37893.69;10439181;28;20028;-65
2023/08/18 13:16:13;;;;;;;0.00;0.00;;;;;;;-145.06;100.00;37925.97;10436390;28;20439;-65
2023/08/18 13:21:13;;;;;;;0.00;0.00;;;;;;;-145.06;100.00;38014.72;10406476;28;20444;-64
2023/08/18 13:26:14;;;;;;;0.00;0.00;;;;;;;-145.06;100.00;38000.59;10439425;28;20398;-64
2023/08/18 13:31:14;;;;;;;0.10;0.10;;;;;;;-145.06;100.00;37982.44;10440528;28;20439;-64
2023/08/18 13:36:14;;;;;;;0.00;0.00;;;;;;;-145.06;100.00;37938.06;10448658;28;20108;-65
2023/08/18 13:41:14;;;;;;;0.00;0.00;;;;;;;-145.06;100.00;37887.63;10427970;28;20037;-64
2023/08/18 13:46:15;;;;;;;0.10;0.10;;;;;;;-145.06;100.00;37861.41;10440375;28;20032;-64
2023/08/18 13:51:15;;;;;;;0.10;0.10;;;;;;;-145.06;100.00;37748.47;10422060;28;20032;-65
2023/08/18 13:56:15;;;;;;;0.00;0.00;;;;;;;-145.06;100.00;37952.19;10435537;28;20070;-65
2023/08/18 14:01:17;;;;;;;0.00;0.00;;;;;;;-145.06;100.00;37873.53;10450739;22;20042;-66
2023/08/18 14:06:17;;;;;;;0.00;0.00;;;;;;;-145.06;100.00;37845.28;10386548;28;20032;-67
2023/08/18 14:11:19;;;;;;;0.10;0.10;;;;;;;-145.06;100.00;37841.25;10389606;28;20498;-66
2023/08/18 14:16:19;;;;;;;0.00;0.00;;;;;;;-145.06;100.00;37798.91;10390749;28;20106;-66
2023/08/18 14:21:20;;;;;;;0.00;0.00;;;;;;;-145.06;100.00;37930.00;10382750;28;20033;-67
2023/08/18 14:26:20;;;;;;;0.00;0.00;;;;;;;-145.06;100.00;37909.81;10391762;28;20039;-67
2023/08/18 14:31:21;;;;;;;0.00;0.00;;;;;;;-145.06;100.00;37913.84;10373107;28;20052;-67
2023/08/18 14:36:21;;;;;;;0.00;0.00;;;;;;;-145.06;100.00;37885.63;10391197;28;20037;-66
2023/08/18 14:41:22;;;;;;;0.10;0.10;;;;;;;-145.06;100.00;37897.72;10373351;28;20030;-67
2023/08/18 14:46:22;;;;;;;0.08;0.08;;;;;;;-145.06;100.00;37877.56;10391855;28;20029;-66
2023/08/18 14:51:22;;;;;;;0.00;0.00;;;;;;;-145.06;100.00;37927.97;10345771;28;20471;-66
2023/08/18 14:56:23;;;;;;;0.10;0.10;;;;;;;-145.06;100.00;37897.72;10350038;28;20029;-66
2023/08/18 15:01:31;;;;;;;0.00;0.00;;;;;;;-145.06;100.00;37994.53;10352824;28;20539;-66
2023/08/18 15:06:31;;;;;;;0.10;0.10;;;;;;;-145.06;100.00;38006.63;10350895;28;20406;-66
2023/08/18 15:11:32;;;;;;;0.00;0.00;;;;;;;-145.06;100.00;38051.00;10350569;28;20026;-65
2023/08/18 15:16:32;;;;;;;0.00;0.00;;;;;;;-145.06;100.00;38063.13;10351570;28;20151;-66
2023/08/18 15:21:33;;;;;;;0.00;0.00;;;;;;;-145.06;100.00;38036.91;10350329;28;20448;-69
2023/08/18 15:26:34;;;;;;;0.00;0.00;;;;;;;-145.06;100.00;38182.13;10350793;28;20046;-65
2023/08/18 15:31:34;;;;;;;0.10;0.10;;;;;;;-145.06;100.00;38178.09;10352897;28;20033;-65
2023/08/18 15:36:35;;;;;;;0.00;0.00;;;;;;;-145.06;100.00;38224.47;10354467;28;20033;-66
2023/08/18 15:41:38;;;;;;;0.00;0.00;;;;;;;-145.06;100.00;38289.03;10356522;28;20046;-66
2023/08/18 15:46:39;;;;;;;0.00;0.00;;;;;;;-145.06;100.00;38282.97;10352941;28;20113;-66
2023/08/18 15:51:39;;;;;;;0.00;0.00;;;;;;;-145.06;100.00;38274.91;10356112;28;20025;-66
2023/08/18 15:56:39;;;;;;;0.10;0.10;;;;;;;-145.06;100.00;38276.94;10345492;28;20280;-66
2023/08/18 16:01:40;;;;;;;0.00;0.00;;;;;;;-145.06;100.00;38236.59;10353224;28;20359;-66
2023/08/18 16:06:40;;;;;;;0.00;0.00;;;;;;;-145.06;100.00;38246.66;10348089;28;20548;-65
2023/08/18 16:11:41;;;;;;;0.00;0.00;;;;;;;-145.06;100.00;38220.44;10343114;28;20037;-65
2023/08/18 16:16:41;;;;;;;0.10;0.10;;;;;;;-145.06;100.00;38168.00;10351859;28;20155;-65
2023/08/18 16:21:41;;;;;;;0.00;0.00;;;;;;;-145.06;100.00;38222.47;10351313;28;20021;-65
2023/08/18 16:26:42;;;;;;;0.00;0.00;;;;;;;-145.06;100.00;38214.41;10341492;28;20030;-65
2023/08/18 16:31:42;;;;;;;0.00;0.00;;;;;;;-145.06;100.00;38274.91;10348610;28;20101;-65
2023/08/18 16:36:42;;;;;;;0.00;0.00;;;;;;;-145.06;100.00;38248.69;10358553;28;20029;-66
2023/08/18 16:41:42;;;;;;;0.00;0.00;;;;;;;-145.06;100.00;38289.03;10356304;28;20455;-65
2023/08/18 16:46:43;;;;;;;0.00;0.00;;;;;;;-145.06;100.00;38297.09;10358179;28;20134;-65
2023/08/18 16:51:45;;;;;;;0.10;0.10;;;;;;;-145.06;100.00;38299.13;10358408;28;21479;-66
2023/08/18 16:56:47;;;;;;;0.00;0.00;;;;;;;-145.06;100.00;38343.50;10368151;28;20041;-65
2023/08/18 17:01:47;;;;;;;0.00;0.00;;;;;;;-145.06;100.00;38341.47;10358606;28;20108;-64
2023/08/18 17:06:47;;;;;;;0.00;0.00;;;;;;;-145.06;100.00;38357.63;10355539;28;20033;-65
2023/08/18 17:11:48;;;;;;;0.00;0.00;;;;;;;-145.06;100.00;38367.69;10355953;28;20524;-65
2023/08/18 17:16:48;;;;;;;0.00;0.00;;;;;;;-145.06;100.00;38365.69;10353137;28;20368;-64
2023/08/18 17:21:48;;;;;;;0.10;0.10;;;;;;;-145.06;100.00;38408.03;10360105;28;20022;-65
2023/08/18 17:26:49;;;;;;;0.10;0.10;;;;;;;-145.06;100.00;38402.00;10353118;28;20033;-65
2023/08/18 17:31:50;;;;;;;0.10;0.10;;;;;;;-145.06;100.00;38347.53;10365606;28;20017;-65
2023/08/18 17:36:50;;;;;;;0.00;0.00;;;;;;;-145.06;100.00;38414.09;10379301;28;20475;-66
2023/08/18 17:41:50;;;;;;;0.00;0.00;;;;;;;-145.06;100.00;38482.69;10380844;28;20481;-65
2023/08/18 17:46:50;;;;;;;0.00;0.00;;;;;;;-145.06;100.00;38516.97;10375634;28;20037;-65
2023/08/18 17:51:51;;;;;;;0.00;0.00;;;;;;;-145.06;100.00;38533.13;10381130;28;20025;-65
2023/08/18 17:56:51;;;;;;;0.10;0.10;;;;;;;-145.06;100.00;38601.72;10378904;28;20537;-65
2023/08/18 18:01:51;;;;;;;0.00;0.00;;;;;;;-145.06;100.00;38605.75;10387075;28;20473;-65
2023/08/18 18:06:52;;;;;;;0.00;0.00;;;;;;;-145.06;100.00;38601.72;10388937;28;20121;-65
2023/08/18 18:11:52;;;;;;;0.00;0.00;;;;;;;-145.06;100.00;38672.31;10390488;28;20261;-66
2023/08/18 18:16:52;;;;;;;0.00;0.00;;;;;;;-145.06;100.00;38716.69;10368829;28;20026;-66
2023/08/18 18:21:53;;;;;;;0.00;0.00;;;;;;;-145.06;100.00;38748.97;10386757;28;20459;-66
2023/08/18 18:26:53;;;;;;;0.00;0.00;;;;;;;-145.06;100.00;38811.50;10385791;28;20099;-66
2023/08/18 18:31:54;;;;;;;0.00;0.00;;;;;;;-145.06;100.00;38827.66;10384940;28;20119;-65
2023/08/18 18:36:54;;;;;;;0.00;0.00;;;;;;;-145.06;100.00;38876.06;10379160;28;20521;-64
2023/08/18 18:41:54;;;;;;;0.00;0.00;;;;;;;-145.06;100.00;38898.25;10386773;28;20014;-65
2023/08/18 18:46:54;;;;;;;0.00;0.00;;;;;;;-145.06;100.00;38930.53;10385041;28;20398;-64
2023/08/18 18:51:55;;;;;;;0.00;0.00;;;;;;;-145.06;100.00;38944.66;10393907;28;20462;-66
2023/08/18 18:56:55;;;;;;;0.00;0.00;;;;;;;-145.06;100.00;38987.03;10380154;28;20506;-66
2023/08/18 19:01:56;;;;;;;0.00;0.00;;;;;;;-145.06;100.00;39017.28;10375966;28;20423;-66
2023/08/18 19:06:56;;;;;;;0.00;0.00;;;;;;;-145.06;100.00;39051.59;10373735;28;20172;-67
2023/08/18 19:11:56;;;;;;;0.10;0.10;;;;;;;-145.06;100.00;39071.78;10387462;28;20013;-67
2023/08/18 19:16:57;;;;;;;0.10;0.10;;;;;;;-145.06;100.00;39089.94;10381049;28;20022;-66
2023/08/18 19:21:57;;;;;;;0.10;0.10;;;;;;;-145.06;100.00;39085.91;10364609;28;20013;-67
2023/08/18 19:26:57;;;;;;;0.10;0.10;;;;;;;-145.06;100.00;39142.38;10381593;28;20442;-67
2023/08/18 19:31:58;;;;;;;0.10;0.10;;;;;;;-145.06;100.00;39136.34;10372851;28;20041;-66
2023/08/18 19:36:58;;;;;;;0.00;0.00;;;;;;;-145.06;100.00;39148.44;10380557;28;20414;-66
2023/08/18 19:41:58;;;;;;;0.10;0.10;;;;;;;-145.06;100.00;39200.91;10383533;28;20014;-66
2023/08/18 19:46:59;;;;;;;0.00;0.00;;;;;;;-145.06;100.00;39200.91;10368273;28;20048;-66
2023/08/18 19:51:59;;;;;;;0.00;0.00;;;;;;;-145.06;100.00;39219.06;10373171;28;20474;-66
2023/08/18 19:56:59;;;;;;;0.00;0.00;;;;;;;-145.06;100.00;39227.13;10381348;28;20032;-66
2023/08/18 20:01:59;;;;;;;0.00;0.00;;;;;;;-145.06;100.00;39208.97;10387688;28;20032;-66
2023/08/18 20:07:01;;;;;;;0.10;0.10;;;;;;;-145.06;100.00;39245.28;10372304;22;20524;-68
2023/08/18 20:12:02;;;;;;;0.00;0.00;;;;;;;-145.06;100.00;39245.28;10337593;28;20033;-67
2023/08/18 20:17:03;;;;;;;0.10;0.10;;;;;;;-145.06;100.00;39217.03;10317169;28;20049;-68
2023/08/18 20:22:03;;;;;;;0.00;0.00;;;;;;;-145.06;100.00;39202.91;10315210;28;20097;-68
2023/08/18 20:27:04;;;;;;;0.00;0.00;;;;;;;-145.06;100.00;39229.13;10307274;28;20042;-68
2023/08/18 20:32:04;;;;;;;0.10;0.10;;;;;;;-145.06;100.00;39225.09;10305797;28;20058;-68
2023/08/18 20:37:06;;;;;;;0.10;0.10;;;;;;;-145.06;100.00;39255.38;10308502;28;20034;-68
2023/08/18 20:42:06;;;;;;;0.00;0.00;;;;;;;-145.06;100.00;39249.31;10329996;28;20026;-68
2023/08/18 20:47:07;;;;;;;0.00;0.00;;;;;;;-145.06;100.00;39273.53;10292466;28;20033;-68
2023/08/18 20:52:07;;;;;;;0.05;0.05;;;;;;;-145.06;100.00;39269.50;10299557;28;20023;-68
2023/08/18 20:57:08;;;;;;;0.10;0.10;;;;;;;-145.06;100.00;39299.75;10305902;28;20479;-68
2023/08/18 21:02:08;;;;;;;0.10;0.10;;;;;;;-145.06;100.00;39338.09;10281372;28;20030;-68
2023/08/18 21:07:08;;;;;;;0.00;0.00;;;;;;;-145.06;100.00;39344.16;10291241;28;20079;-68
2023/08/18 21:12:09;;;;;;;0.00;0.00;;;;;;;-145.06;100.00;39392.56;10310091;28;20014;-68
2023/08/18 21:17:09;;;;;;;0.10;0.10;;;;;;;-145.06;100.00;39317.91;10325359;28;20450;-68
2023/08/18 21:22:09;;;;;;;0.10;0.10;;;;;;;-145.06;100.00;39354.25;10330160;28;20034;-68
2023/08/18 21:27:10;;;;;;;0.10;0.10;;;;;;;-145.06;100.00;39350.19;10318736;28;20030;-68
2023/08/18 21:32:10;;;;;;;0.10;0.10;;;;;;;-145.06;100.00;39366.34;10322812;28;20391;-68
2023/08/18 21:37:10;;;;;;;0.00;0.00;;;;;;;-145.06;100.00;39358.28;10312064;28;20394;-68
2023/08/18 21:42:11;;;;;;;0.00;0.00;;;;;;;-145.06;100.00;39360.28;10327714;28;20260;-68
2023/08/18 21:47:11;;;;;;;0.10;0.10;;;;;;;-145.06;100.00;39348.19;10322288;28;20018;-68
2023/08/18 21:52:11;;;;;;;0.10;0.10;;;;;;;-145.06;100.00;39386.53;10328678;28;20017;-68
2023/08/18 21:57:16;;;;;;;0.00;0.00;;;;;;;-145.06;100.00;39372.41;10316484;28;20018;-68
2023/08/18 22:02:16;;;;;;;0.00;0.00;;;;;;;-145.06;100.00;39408.72;10314638;28;20035;-68
2023/08/18 22:07:16;;;;;;;0.10;0.10;;;;;;;-145.06;100.00;39332.03;10328202;28;20486;-68
2023/08/18 22:12:16;;;;;;;0.10;0.10;;;;;;;-145.06;100.00;39360.28;10326213;28;20027;-68
2023/08/18 22:17:17;;;;;;;0.10;0.10;;;;;;;-145.06;100.00;39358.28;10313490;28;20018;-68
2023/08/18 22:22:17;;;;;;;0.00;0.00;;;;;;;-145.06;100.00;39366.34;10319303;28;20399;-68
2023/08/18 22:27:19;;;;;;;0.10;0.10;;;;;;;-145.06;100.00;39402.66;10303781;28;20027;-68
2023/08/18 22:32:19;;;;;;;0.10;0.10;;;;;;;-145.06;100.00;39394.59;10320018;28;20033;-68